PWSweather.com
Personal Weather Stations
Station Observations
W7JKG
Phoenix, AZ 85032-2083

Phoenix, AZ 85032-2083

Lat: 33.645544, Lon: -112.007099

Elevation: 1474

Station Type: Davis Vantage Pro2 Wireless

http://tiggrweather.net/

High Low Average
Temperature 106.5°F41.4°C 85.8°F29.9°C 96.6°F35.9°C
Dew Point 68.6°F20.3°C 61.4°F16.3°C 66.4°F19.1°C
Winds 6.9 mph 11.1 kmh Calm Calm 4.0 mph WSW6.4 kmh WSW
Wind Gusts 11.5 mph18.5 kmh 1.2 mph1.9 kmh 6.0 mph9.7 kmh
Humidity 54% 26% 39%
Pressure 29.98 in1015.2 mb 29.77 in1008.1 mb -
Precipitation 0.00 in0.0 mm - -
Hour Temp Dew Point Humidity Winds Wind Gusts Pressure Precip Precip Rate Daily Precip Total
12:00 AM 92.5°F33.6°C 67.4°F19.7°C 44% 3.5 mph WSW5.6 kmh WSW 6.9 mph11.1 kmh 29.95 in1014.2 mb - 0.00 in0.0 mm 0.00 in0.0 mm
01:00 AM 91.5°F33.1°C 67.2°F19.6°C 45% Calm Calm 2.3 mph3.7 kmh 29.94 in1013.9 mb - 0.00 in0.0 mm 0.00 in0.0 mm
02:00 AM 90.4°F32.4°C 67.4°F19.7°C 47% 2.3 mph WSW3.7 kmh WSW 3.5 mph5.6 kmh 29.93 in1013.5 mb - 0.00 in0.0 mm 0.00 in0.0 mm
03:00 AM 89.3°F31.8°C 68.2°F20.1°C 50% 2.3 mph W3.7 kmh W 4.6 mph7.4 kmh 29.93 in1013.5 mb - 0.00 in0.0 mm 0.00 in0.0 mm
04:00 AM 87.7°F30.9°C 68.4°F20.2°C 53% 3.5 mph W5.6 kmh W 5.8 mph9.3 kmh 29.93 in1013.5 mb - 0.00 in0.0 mm 0.00 in0.0 mm
05:00 AM 86.6°F30.3°C 68.0°F20.0°C 54% 3.5 mph WSW5.6 kmh WSW 3.5 mph5.6 kmh 29.94 in1013.9 mb - 0.00 in0.0 mm 0.00 in0.0 mm
06:00 AM 85.8°F29.9°C 67.2°F19.6°C 54% 1.2 mph WSW1.9 kmh WSW 3.5 mph5.6 kmh 29.96 in1014.6 mb - 0.00 in0.0 mm 0.00 in0.0 mm
07:00 AM 87.2°F30.7°C 67.4°F19.7°C 52% 3.5 mph WSW5.6 kmh WSW 3.5 mph5.6 kmh 29.98 in1015.2 mb - 0.00 in0.0 mm 0.00 in0.0 mm
08:00 AM 90.1°F32.3°C 68.4°F20.2°C 49% Calm Calm 1.2 mph1.9 kmh 29.98 in1015.2 mb - 0.00 in0.0 mm 0.00 in0.0 mm
09:00 AM 92.2°F33.4°C 68.4°F20.2°C 46% 3.5 mph WNW5.6 kmh WNW 4.6 mph7.4 kmh 29.98 in1015.2 mb - 0.00 in0.0 mm 0.00 in0.0 mm
10:00 AM 95.0°F35.0°C 68.3°F20.2°C 42% 5.8 mph WSW9.3 kmh WSW 8.1 mph13.0 kmh 29.98 in1015.2 mb - 0.00 in0.0 mm 0.00 in0.0 mm
11:00 AM 97.8°F36.6°C 68.6°F20.3°C 39% 3.5 mph WSW5.6 kmh WSW 3.5 mph5.6 kmh 29.97 in1014.9 mb - 0.00 in0.0 mm 0.00 in0.0 mm
12:00 PM 99.5°F37.5°C 68.6°F20.3°C 37% 4.6 mph W7.4 kmh W 5.8 mph9.3 kmh 29.95 in1014.2 mb - 0.00 in0.0 mm 0.00 in0.0 mm
01:00 PM 102.7°F39.3°C 68.0°F20.0°C 33% 3.5 mph WSW5.6 kmh WSW 8.1 mph13.0 kmh 29.91 in1012.9 mb - 0.00 in0.0 mm 0.00 in0.0 mm
02:00 PM 104.0°F40.0°C 67.4°F19.7°C 31% 3.5 mph W5.6 kmh W 5.8 mph9.3 kmh 29.87 in1011.5 mb - 0.00 in0.0 mm 0.00 in0.0 mm
03:00 PM 105.5°F40.8°C 66.8°F19.3°C 29% 5.8 mph SW9.3 kmh SW 9.2 mph14.8 kmh 29.84 in1010.5 mb - 0.00 in0.0 mm 0.00 in0.0 mm
04:00 PM 106.3°F41.3°C 65.4°F18.6°C 27% 3.5 mph SW5.6 kmh SW 3.5 mph5.6 kmh 29.80 in1009.1 mb - 0.00 in0.0 mm 0.00 in0.0 mm
05:00 PM 106.5°F41.4°C 64.4°F18.0°C 26% 5.8 mph WSW9.3 kmh WSW 9.2 mph14.8 kmh 29.80 in1009.1 mb - 0.00 in0.0 mm 0.00 in0.0 mm
06:00 PM 105.9°F41.1°C 63.9°F17.7°C 26% 3.5 mph SW5.6 kmh SW 5.8 mph9.3 kmh 29.77 in1008.1 mb - 0.00 in0.0 mm 0.00 in0.0 mm
07:00 PM 104.3°F40.2°C 63.6°F17.6°C 27% 5.8 mph SW9.3 kmh SW 11.5 mph18.5 kmh 29.80 in1009.1 mb - 0.00 in0.0 mm 0.00 in0.0 mm
08:00 PM 101.8°F38.8°C 63.6°F17.6°C 29% 5.8 mph WSW9.3 kmh WSW 10.4 mph16.7 kmh 29.81 in1009.5 mb - 0.00 in0.0 mm 0.00 in0.0 mm
09:00 PM 100.5°F38.1°C 63.4°F17.4°C 30% 5.8 mph WSW9.3 kmh WSW 10.4 mph16.7 kmh 29.82 in1009.8 mb - 0.00 in0.0 mm 0.00 in0.0 mm
10:00 PM 99.3°F37.4°C 63.3°F17.4°C 31% 6.9 mph W11.1 kmh W 9.2 mph14.8 kmh 29.85 in1010.8 mb - 0.00 in0.0 mm 0.00 in0.0 mm
11:00 PM 96.0°F35.6°C 61.4°F16.3°C 32% 3.5 mph NW5.6 kmh NW 4.6 mph7.4 kmh 29.85 in1010.8 mb - 0.00 in0.0 mm 0.00 in0.0 mm